Time;durP1;ratioP1;P1;durP2;ratioP2;P2;SDS_P1;SDS_P2;PMS_P1;PMS_P2;Temp;Humidity;BMP_temperature;BMP_pressure;BME280_temperature;BME280_humidity;BME280_pressure;Samples;Min_cycle;Max_cycle;Signal;HPM_P1;HPM_P2
2024/01/13 00:00:01;;;;;;;9.23;1.55;;;;;;;1.76;100.00;102092.75;4963257;28;20182;-46
2024/01/13 00:02:30;;;;;;;15.13;1.75;;;;;;;1.77;100.00;102092.78;4962290;28;20206;-45
2024/01/13 00:04:55;;;;;;;13.27;2.15;;;;;;;1.76;100.00;102092.75;4960443;28;20656;-47
2024/01/13 00:07:21;;;;;;;8.13;1.63;;;;;;;1.77;100.00;102098.06;4968064;28;20178;-46
2024/01/13 00:09:46;;;;;;;6.85;1.10;;;;;;;1.76;100.00;102095.38;4947690;28;20210;-47
2024/01/13 00:12:11;;;;;;;7.15;1.63;;;;;;;1.75;100.00;102089.22;4966135;28;20272;-45
2024/01/13 00:14:37;;;;;;;10.23;1.75;;;;;;;1.76;100.00;102085.69;4965114;28;20233;-45
2024/01/13 00:17:03;;;;;;;15.05;1.63;;;;;;;1.77;100.00;102074.28;4960598;28;20645;-44
2024/01/13 00:19:28;;;;;;;5.43;1.48;;;;;;;1.76;100.00;102079.53;4960100;28;20621;-46
2024/01/13 00:21:54;;;;;;;10.82;1.48;;;;;;;1.77;100.00;102076.00;4964434;28;20603;-46
2024/01/13 00:24:19;;;;;;;9.32;1.25;;;;;;;1.71;100.00;102066.25;4961079;28;20206;-43
2024/01/13 00:26:45;;;;;;;7.93;1.10;;;;;;;1.71;100.00;102057.44;4963822;28;20190;-45
2024/01/13 00:29:11;;;;;;;8.40;1.50;;;;;;;1.83;100.00;102062.91;4964032;28;20615;-45
2024/01/13 00:31:37;;;;;;;12.00;1.80;;;;;;;1.74;100.00;102052.19;4966397;28;20285;-45
2024/01/13 00:34:02;;;;;;;7.55;1.30;;;;;;;1.76;100.00;102061.03;4963183;28;20284;-45
2024/01/13 00:36:28;;;;;;;10.35;1.65;;;;;;;1.71;100.00;102049.50;4962426;28;20296;-45
2024/01/13 00:38:54;;;;;;;10.77;1.63;;;;;;;1.64;100.00;102054.66;4962477;28;20636;-46
2024/01/13 00:41:19;;;;;;;6.70;1.13;;;;;;;1.74;100.00;102046.91;4964286;28;20236;-44
2024/01/13 00:43:45;;;;;;;11.02;1.73;;;;;;;1.80;100.00;102047.03;4966548;28;20190;-45
2024/01/13 00:46:10;;;;;;;6.43;1.50;;;;;;;1.69;100.00;102033.63;4962005;28;20182;-46
2024/01/13 00:48:36;;;;;;;5.35;1.30;;;;;;;1.65;100.00;102032.66;4961160;28;20187;-45
2024/01/13 00:51:02;;;;;;;6.38;1.25;;;;;;;1.65;100.00;102023.84;4966070;28;20264;-45
2024/01/13 00:53:28;;;;;;;3.72;0.93;;;;;;;1.62;100.00;102024.69;4960454;28;20269;-46
2024/01/13 00:55:53;;;;;;;4.22;1.35;;;;;;;1.67;100.00;102019.50;4957855;28;20761;-45
2024/01/13 00:58:19;;;;;;;3.78;1.08;;;;;;;1.68;100.00;102017.72;4965621;28;20253;-44
2024/01/13 01:00:44;;;;;;;1.38;0.85;;;;;;;1.65;100.00;102019.44;4950582;28;20240;-46
2024/01/13 01:03:10;;;;;;;4.65;1.10;;;;;;;1.67;100.00;102011.56;4950690;28;20190;-45
2024/01/13 01:05:36;;;;;;;6.15;0.93;;;;;;;1.65;100.00;102013.28;4966363;28;20205;-45
2024/01/13 01:08:01;;;;;;;6.18;1.10;;;;;;;1.67;100.00;102006.28;4951584;28;20287;-45
2024/01/13 01:10:27;;;;;;;1.48;0.70;;;;;;;1.70;100.00;102021.28;4965506;28;20253;-47
2024/01/13 01:12:52;;;;;;;7.35;1.98;;;;;;;1.72;100.00;102014.28;4948170;28;20288;-45
2024/01/13 01:15:18;;;;;;;2.80;1.10;;;;;;;1.70;100.00;102018.66;4958091;28;20238;-46
2024/01/13 01:17:43;;;;;;;8.35;1.10;;;;;;;1.76;100.00;102018.75;4962914;28;20278;-45
2024/01/13 01:20:09;;;;;;;3.10;1.63;;;;;;;1.70;100.00;102016.88;4963959;28;20215;-46
2024/01/13 01:22:35;;;;;;;2.45;1.50;;;;;;;1.71;100.00;102000.19;4964162;28;20629;-45
2024/01/13 01:25:01;;;;;;;3.33;0.90;;;;;;;1.75;100.00;101998.47;4958322;28;20199;-46
2024/01/13 01:27:26;;;;;;;2.13;1.17;;;;;;;1.76;100.00;101992.34;4961405;28;20186;-46
2024/01/13 01:29:52;;;;;;;6.97;1.27;;;;;;;1.77;100.00;101987.09;4964393;28;20210;-45
2024/01/13 01:32:17;;;;;;;8.70;1.77;;;;;;;1.70;100.00;101984.31;4936346;28;20244;-45
2024/01/13 01:34:43;;;;;;;2.67;1.33;;;;;;;1.67;100.00;101969.28;4949429;28;20262;-45
2024/01/13 01:37:08;;;;;;;3.10;1.10;;;;;;;1.67;100.00;101961.38;4966292;28;20217;-44
2024/01/13 01:39:34;;;;;;;3.20;1.30;;;;;;;1.65;100.00;101966.63;4965895;28;20264;-44
2024/01/13 01:41:59;;;;;;;5.15;1.40;;;;;;;1.70;100.00;101963.16;4968665;28;20655;-45
2024/01/13 01:44:25;;;;;;;1.98;1.23;;;;;;;1.85;100.00;101953.72;4962616;28;20206;-46
2024/01/13 01:46:51;;;;;;;1.55;0.88;;;;;;;1.74;100.00;101957.97;4964467;28;20241;-46
2024/01/13 01:49:18;;;;;;;3.80;1.30;;;;;;;1.71;100.00;101947.34;4967379;28;20209;-44
2024/01/13 01:51:44;;;;;;;0.82;0.70;;;;;;;1.64;100.00;101943.72;4968636;28;20190;-44
2024/01/13 01:54:10;;;;;;;2.20;0.98;;;;;;;1.67;100.00;101939.34;4963669;28;20301;-45
2024/01/13 01:56:38;;;;;;;0.90;0.75;;;;;;;1.68;100.00;101935.84;4966397;28;20226;-46
2024/01/13 01:59:05;;;;;;;4.13;0.70;;;;;;;1.67;100.00;101924.38;4966333;28;20719;-45
2024/01/13 02:01:31;;;;;;;3.63;1.10;;;;;;;1.64;100.00;101929.63;4940338;28;20221;-46
2024/01/13 02:03:58;;;;;;;3.15;1.05;;;;;;;1.64;100.00;101922.59;4963695;28;20630;-46
2024/01/13 02:06:24;;;;;;;2.50;0.90;;;;;;;1.65;100.00;101924.34;4966369;28;20174;-45
2024/01/13 02:08:50;;;;;;;1.08;0.80;;;;;;;1.68;100.00;101933.19;4965083;28;20182;-47
2024/01/13 02:11:16;;;;;;;3.85;0.98;;;;;;;1.67;100.00;101934.06;4962846;28;20242;-46
2024/01/13 02:13:44;;;;;;;2.85;1.02;;;;;;;1.71;100.00;101918.28;4957427;28;20194;-52
2024/01/13 02:16:10;;;;;;;3.45;1.10;;;;;;;1.71;100.00;101914.78;4962840;28;20218;-45
2024/01/13 02:18:37;;;;;;;2.47;1.23;;;;;;;1.69;100.00;101921.78;4972069;28;20188;-46
2024/01/13 02:21:03;;;;;;;8.43;1.70;;;;;;;1.65;100.00;101920.84;4949405;28;20182;-46
2024/01/13 02:23:29;;;;;;;2.75;1.23;;;;;;;1.63;100.00;101904.94;4961963;28;20183;-45
2024/01/13 02:25:55;;;;;;;5.68;1.77;;;;;;;1.60;100.00;101904.03;4962043;28;20583;-46
2024/01/13 02:28:21;;;;;;;1.88;1.10;;;;;;;1.60;100.00;101907.56;4961725;28;20194;-44
2024/01/13 02:30:46;;;;;;;6.60;1.00;;;;;;;1.61;100.00;101896.09;4965203;28;20194;-47
2024/01/13 02:33:12;;;;;;;3.55;1.00;;;;;;;1.61;100.00;101893.47;4964385;28;20291;-46
2024/01/13 02:35:37;;;;;;;1.83;0.90;;;;;;;1.61;100.00;101889.94;4966053;28;20586;-46
2024/01/13 02:38:03;;;;;;;1.35;1.08;;;;;;;1.61;100.00;101882.03;4969270;28;20257;-45
2024/01/13 02:40:28;;;;;;;6.95;1.10;;;;;;;1.70;100.00;101886.56;4959818;28;20178;-44
2024/01/13 02:42:54;;;;;;;2.53;0.80;;;;;;;1.68;100.00;101880.38;4948484;28;20182;-46
2024/01/13 02:45:19;;;;;;;3.42;1.35;;;;;;;1.63;100.00;101875.88;4964497;28;20208;-44
2024/01/13 02:47:55;;;;;;;3.45;0.80;;;;;;;1.64;100.00;101880.31;4966864;28;20669;-44
2024/01/13 02:50:20;;;;;;;5.35;1.20;;;;;;;1.70;100.00;101873.34;4967549;28;20286;-44
2024/01/13 02:52:47;;;;;;;7.00;1.00;;;;;;;1.65;100.00;101873.28;4962785;28;20267;-43
2024/01/13 02:55:13;;;;;;;4.43;1.10;;;;;;;1.66;100.00;101882.97;4968775;28;20266;-42
2024/01/13 02:57:38;;;;;;;4.03;1.10;;;;;;;1.64;100.00;101874.16;4960960;28;20186;-45
2024/01/13 03:00:05;;;;;;;4.45;0.95;;;;;;;1.62;100.00;101863.56;4967601;28;20173;-45
2024/01/13 03:02:30;;;;;;;1.77;0.88;;;;;;;1.60;100.00;101875.84;4963150;28;20240;-44
2024/01/13 03:04:56;;;;;;;2.88;0.70;;;;;;;1.59;100.00;101874.06;4965397;28;20218;-44
2024/01/13 03:07:21;;;;;;;6.97;1.33;;;;;;;1.63;100.00;101878.53;4964559;28;20225;-46
2024/01/13 03:09:47;;;;;;;3.90;0.98;;;;;;;1.62;100.00;101878.53;4961618;28;20194;-46
2024/01/13 03:12:12;;;;;;;7.78;1.00;;;;;;;1.70;100.00;101870.72;4962575;28;20261;-43
2024/01/13 03:14:38;;;;;;;2.20;1.02;;;;;;;1.65;100.00;101865.34;4963055;28;20392;-46
2024/01/13 03:17:03;;;;;;;1.42;0.93;;;;;;;1.63;100.00;101860.03;4972635;28;20195;-45
2024/01/13 03:19:30;;;;;;;1.38;1.08;;;;;;;1.63;100.00;101853.88;4961845;28;20221;-45
2024/01/13 03:21:55;;;;;;;3.08;0.93;;;;;;;1.65;100.00;101854.78;4962792;28;20190;-46
2024/01/13 03:24:21;;;;;;;3.65;0.75;;;;;;;1.67;100.00;101847.78;4963374;28;20763;-45
2024/01/13 03:26:46;;;;;;;3.55;0.68;;;;;;;1.65;100.00;101844.22;4961872;28;20232;-44
2024/01/13 03:29:12;;;;;;;3.05;1.33;;;;;;;1.70;100.00;101849.56;4962353;28;20696;-45
2024/01/13 03:31:37;;;;;;;7.95;1.30;;;;;;;1.64;100.00;101842.47;4965971;28;20220;-46
2024/01/13 03:34:02;;;;;;;2.85;1.17;;;;;;;1.65;100.00;101847.75;4963234;28;20217;-45
2024/01/13 03:36:28;;;;;;;6.90;1.48;;;;;;;1.63;100.00;101843.31;4966712;28;20182;-44
2024/01/13 03:38:53;;;;;;;2.42;1.08;;;;;;;1.63;100.00;101838.91;4961729;28;20185;-44
2024/01/13 03:41:22;;;;;;;1.73;1.10;;;;;;;1.67;100.00;101837.22;4962489;28;20334;-45
2024/01/13 03:43:49;;;;;;;8.25;1.65;;;;;;;1.63;100.00;101830.09;4962796;28;20597;-46
2024/01/13 03:46:14;;;;;;;7.60;1.23;;;;;;;1.61;100.00;101829.19;4961585;28;20644;-45
2024/01/13 03:48:40;;;;;;;4.50;1.00;;;;;;;1.67;100.00;101825.78;4966019;28;20197;-45
2024/01/13 03:51:05;;;;;;;5.40;1.75;;;;;;;1.64;100.00;101822.22;4949618;28;20202;-45
2024/01/13 03:53:32;;;;;;;2.55;1.05;;;;;;;1.70;100.00;101828.44;4949400;28;20217;-44
2024/01/13 03:55:58;;;;;;;4.65;1.23;;;;;;;1.67;100.00;101825.78;4953196;28;20195;-46
2024/01/13 03:58:23;;;;;;;8.88;1.55;;;;;;;1.69;100.00;101810.84;4963403;28;20197;-44
2024/01/13 04:00:49;;;;;;;4.50;1.17;;;;;;;1.67;100.00;101815.19;4962899;28;20177;-45
2024/01/13 04:03:14;;;;;;;6.95;1.48;;;;;;;1.68;100.00;101804.63;4960786;28;20609;-46
2024/01/13 04:05:40;;;;;;;1.48;0.90;;;;;;;1.64;100.00;101809.00;4945516;28;20216;-45
2024/01/13 04:08:06;;;;;;;7.43;1.00;;;;;;;1.62;100.00;101797.53;4945797;28;20191;-46
2024/01/13 04:10:31;;;;;;;4.38;1.95;;;;;;;1.65;100.00;101802.84;4955290;28;20703;-46
2024/01/13 04:12:57;;;;;;;5.97;1.42;;;;;;;1.62;100.00;101801.94;4964812;28;20979;-45
2024/01/13 04:15:23;;;;;;;4.72;1.60;;;;;;;1.64;100.00;101797.56;4962440;28;20219;-45
2024/01/13 04:17:48;;;;;;;8.73;1.30;;;;;;;1.66;100.00;101779.94;4965944;28;20170;-45
2024/01/13 04:20:14;;;;;;;3.75;1.60;;;;;;;1.70;100.00;101786.19;4960879;28;20641;-45
2024/01/13 04:22:39;;;;;;;5.43;1.33;;;;;;;1.65;100.00;101775.53;4960761;28;20613;-44
2024/01/13 04:25:05;;;;;;;7.63;1.45;;;;;;;1.69;100.00;101764.16;4963822;28;20694;-45
2024/01/13 04:27:31;;;;;;;8.35;1.95;;;;;;;1.68;100.00;101765.00;4959929;28;20190;-44
2024/01/13 04:29:56;;;;;;;4.45;2.00;;;;;;;1.70;100.00;101765.03;4961869;28;20669;-43
2024/01/13 04:32:22;;;;;;;9.73;2.10;;;;;;;1.71;100.00;101758.91;4960197;28;20205;-45
2024/01/13 04:34:48;;;;;;;12.57;2.20;;;;;;;1.70;100.00;101759.75;4963891;28;20208;-45
2024/01/13 04:37:13;;;;;;;6.78;1.70;;;;;;;1.70;100.00;101747.44;4947450;28;20189;-45
2024/01/13 04:39:39;;;;;;;7.95;1.52;;;;;;;1.69;100.00;101747.44;4965152;28;20186;-45
2024/01/13 04:42:04;;;;;;;6.47;1.48;;;;;;;1.69;100.00;101742.16;4963244;28;20225;-44
2024/01/13 04:44:30;;;;;;;5.78;1.90;;;;;;;1.68;100.00;101737.72;4967424;28;20189;-45
2024/01/13 04:46:55;;;;;;;12.52;2.10;;;;;;;1.81;100.00;101723.78;4964689;28;20190;-44
2024/01/13 04:49:21;;;;;;;6.80;2.03;;;;;;;1.79;100.00;101730.81;4965339;28;20280;-45
2024/01/13 04:51:46;;;;;;;10.07;2.50;;;;;;;1.76;100.00;101736.06;4973920;28;20961;-43
2024/01/13 04:54:12;;;;;;;4.93;2.35;;;;;;;1.74;100.00;101722.81;4953721;28;20284;-47
2024/01/13 04:56:37;;;;;;;11.80;2.55;;;;;;;1.78;100.00;101715.84;4965249;28;20697;-44
2024/01/13 04:59:03;;;;;;;8.38;2.13;;;;;;;1.76;100.00;101718.44;4964685;28;20261;-43
2024/01/13 05:01:28;;;;;;;12.25;2.45;;;;;;;1.80;100.00;101717.63;4964466;28;20965;-46
2024/01/13 05:03:54;;;;;;;12.45;2.63;;;;;;;1.76;100.00;101691.16;4963900;28;20181;-42
2024/01/13 05:06:19;;;;;;;14.10;2.63;;;;;;;1.78;100.00;101678.84;4967569;28;20193;-45
2024/01/13 05:08:45;;;;;;;15.18;2.15;;;;;;;1.78;100.00;101682.38;4964132;28;20182;-46
2024/01/13 05:11:10;;;;;;;10.98;2.17;;;;;;;1.78;100.00;101684.13;4971089;28;20221;-45
2024/01/13 05:13:36;;;;;;;10.82;2.67;;;;;;;1.83;100.00;101680.66;4974845;28;20214;-45
2024/01/13 05:16:03;;;;;;;7.15;1.95;;;;;;;1.80;100.00;101687.69;4970859;28;20195;-46
2024/01/13 05:18:28;;;;;;;9.18;2.42;;;;;;;1.87;100.00;101686.00;4969730;28;20197;-46
2024/01/13 05:20:54;;;;;;;12.52;2.47;;;;;;;1.85;100.00;101692.13;4973057;28;20178;-45
2024/01/13 05:23:19;;;;;;;12.75;2.28;;;;;;;1.89;100.00;101687.78;4973535;28;20208;-47
2024/01/13 05:25:45;;;;;;;8.10;2.58;;;;;;;1.81;100.00;101677.09;4954289;28;20238;-48
2024/01/13 05:28:10;;;;;;;9.38;2.75;;;;;;;1.80;100.00;101679.75;4968277;28;20602;-44
2024/01/13 05:30:36;;;;;;;11.95;1.92;;;;;;;1.81;100.00;101677.09;4970153;28;20238;-48
2024/01/13 05:33:01;;;;;;;11.52;1.95;;;;;;;1.80;100.00;101674.47;4971776;28;20210;-43
2024/01/13 05:35:27;;;;;;;13.90;2.30;;;;;;;1.77;100.00;101661.22;4965789;28;20202;-44
2024/01/13 05:37:53;;;;;;;10.75;2.05;;;;;;;1.77;100.00;101653.28;4968840;28;20174;-43
2024/01/13 05:40:21;;;;;;;5.85;1.85;;;;;;;1.76;100.00;101636.56;4964171;28;20299;-43
2024/01/13 05:42:47;;;;;;;11.80;2.60;;;;;;;1.78;100.00;101633.94;4965495;28;20190;-46
2024/01/13 05:45:13;;;;;;;9.43;2.47;;;;;;;1.80;100.00;101624.28;4967018;28;20225;-45
2024/01/13 05:47:38;;;;;;;11.73;2.30;;;;;;;1.73;100.00;101617.13;4966897;28;20179;-42
2024/01/13 05:50:04;;;;;;;6.15;1.67;;;;;;;1.73;100.00;101604.84;4956356;28;20198;-45
2024/01/13 05:52:30;;;;;;;17.92;1.70;;;;;;;1.77;100.00;101606.63;4973105;28;20205;-46
2024/01/13 05:54:56;;;;;;;6.80;1.60;;;;;;;1.74;100.00;101601.31;4966722;28;20527;-45
2024/01/13 05:57:22;;;;;;;8.15;1.58;;;;;;;1.71;100.00;101595.13;4974745;28;20180;-46
2024/01/13 05:59:47;;;;;;;6.57;1.40;;;;;;;1.76;100.00;101582.84;4975864;28;20676;-45
2024/01/13 06:02:13;;;;;;;12.02;2.00;;;;;;;1.73;100.00;101586.34;4976006;28;20668;-46
2024/01/13 06:04:39;;;;;;;8.98;1.35;;;;;;;1.70;100.00;101588.94;4972110;28;20735;-44
2024/01/13 06:07:05;;;;;;;10.20;1.85;;;;;;;1.70;100.00;101586.28;4965040;28;20185;-43
2024/01/13 06:09:32;;;;;;;9.77;1.77;;;;;;;1.69;100.00;101576.59;4969228;28;20201;-44
2024/01/13 06:11:57;;;;;;;11.25;1.90;;;;;;;1.66;100.00;101571.28;4966542;28;20563;-44
2024/01/13 06:14:23;;;;;;;8.77;1.88;;;;;;;1.71;100.00;101566.94;4970692;28;20205;-45
2024/01/13 06:16:49;;;;;;;6.95;1.83;;;;;;;1.64;100.00;101566.00;4967445;28;20202;-44
2024/01/13 06:19:14;;;;;;;10.40;1.95;;;;;;;1.63;100.00;101573.91;4965702;28;20300;-47
2024/01/13 06:21:43;;;;;;;9.48;2.00;;;;;;;1.64;100.00;101580.97;4968046;28;20327;-47
2024/01/13 06:24:10;;;;;;;13.90;2.38;;;;;;;1.72;100.00;101567.81;4967883;28;20198;-44
2024/01/13 06:26:40;;;;;;;12.80;2.20;;;;;;;1.64;100.00;101558.06;4963928;28;20294;-45
2024/01/13 06:29:07;;;;;;;5.82;1.70;;;;;;;1.63;100.00;101553.66;4953391;28;20251;-46
2024/01/13 06:31:32;;;;;;;6.20;1.90;;;;;;;1.63;100.00;101558.94;4962303;28;20182;-46
2024/01/13 06:33:58;;;;;;;6.13;2.22;;;;;;;1.67;100.00;101543.13;4967466;28;20201;-45
2024/01/13 06:36:24;;;;;;;5.53;1.80;;;;;;;1.63;100.00;101540.44;4969888;28;20257;-48
2024/01/13 06:38:50;;;;;;;9.73;1.67;;;;;;;1.63;100.00;101531.63;4962175;28;20191;-44
2024/01/13 06:41:15;;;;;;;8.30;2.38;;;;;;;1.68;100.00;101526.41;4936139;28;20197;-47
2024/01/13 06:43:41;;;;;;;4.93;1.75;;;;;;;1.64;100.00;101513.16;4966136;28;20175;-46
2024/01/13 06:46:09;;;;;;;6.70;1.88;;;;;;;1.61;100.00;101510.47;4967384;28;20194;-46
2024/01/13 06:48:35;;;;;;;8.50;2.03;;;;;;;1.59;100.00;101496.38;4962376;28;20208;-47
2024/01/13 06:51:00;;;;;;;6.60;1.63;;;;;;;1.62;100.00;101491.13;4966777;28;20202;-46
2024/01/13 06:53:26;;;;;;;5.70;1.35;;;;;;;1.67;100.00;101472.69;4962374;28;20186;-45
2024/01/13 06:55:51;;;;;;;7.82;1.48;;;;;;;1.68;100.00;101478.84;4964854;28;20655;-45
2024/01/13 06:58:17;;;;;;;4.80;1.65;;;;;;;1.70;100.00;101477.09;4968969;28;20261;-47
2024/01/13 07:00:43;;;;;;;6.20;1.70;;;;;;;1.69;100.00;101470.94;4961782;28;20261;-47
2024/01/13 07:03:08;;;;;;;6.57;2.05;;;;;;;1.73;100.00;101482.41;4957880;28;20660;-47
2024/01/13 07:05:34;;;;;;;12.90;1.48;;;;;;;1.76;100.00;101464.84;4964514;28;20219;-46
2024/01/13 07:08:00;;;;;;;2.75;1.27;;;;;;;1.84;100.00;101465.78;4966072;28;20174;-47
2024/01/13 07:10:28;;;;;;;6.07;1.90;;;;;;;1.92;100.00;101452.63;4960131;28;20502;-47
2024/01/13 07:12:53;;;;;;;8.35;2.15;;;;;;;1.99;100.00;101443.88;4962192;28;20189;-45
2024/01/13 07:15:19;;;;;;;3.65;1.70;;;;;;;1.94;100.00;101453.50;4952515;28;20315;-46
2024/01/13 07:17:44;;;;;;;6.13;1.50;;;;;;;2.04;100.00;101443.91;4967433;28;20306;-46
2024/01/13 07:20:10;;;;;;;5.88;1.95;;;;;;;1.97;100.00;101440.34;4965021;28;20680;-47
2024/01/13 07:22:36;;;;;;;6.35;2.20;;;;;;;2.05;100.00;101428.03;4963791;28;20466;-47
2024/01/13 07:25:02;;;;;;;4.47;1.90;;;;;;;2.08;100.00;101431.56;4959690;28;20407;-46
2024/01/13 07:27:27;;;;;;;6.95;2.30;;;;;;;2.12;100.00;101418.44;4960291;28;20183;-47
2024/01/13 07:29:53;;;;;;;8.07;3.00;;;;;;;2.13;100.00;101409.59;4952030;28;20190;-47
2024/01/13 07:32:18;;;;;;;9.48;3.10;;;;;;;2.17;100.00;101421.09;4965030;28;20186;-47
2024/01/13 07:34:44;;;;;;;6.25;2.78;;;;;;;2.17;100.00;101415.81;4948537;28;20214;-46
2024/01/13 07:37:09;;;;;;;11.73;2.38;;;;;;;2.17;100.00;101402.59;4952530;28;20186;-47
2024/01/13 07:39:35;;;;;;;5.45;2.15;;;;;;;2.14;100.00;101402.56;4963813;28;20190;-47
2024/01/13 07:42:00;;;;;;;9.30;2.28;;;;;;;2.12;100.00;101396.38;4960572;28;20619;-47
2024/01/13 07:44:26;;;;;;;5.78;2.20;;;;;;;2.12;100.00;101397.28;4966244;28;20252;-45
2024/01/13 07:46:53;;;;;;;9.68;1.95;;;;;;;2.16;100.00;101412.25;4962375;28;20553;-46
2024/01/13 07:49:18;;;;;;;5.70;2.03;;;;;;;2.14;100.00;101395.50;4961873;28;20200;-44
2024/01/13 07:51:49;;;;;;;8.50;2.53;;;;;;;2.19;100.00;101407.00;4965316;28;20273;-45
2024/01/13 07:54:15;;;;;;;7.97;2.15;;;;;;;2.18;100.00;101404.34;4969226;28;20205;-45
2024/01/13 07:56:41;;;;;;;6.40;2.22;;;;;;;2.21;100.00;101391.16;4958089;28;20264;-46
2024/01/13 07:59:07;;;;;;;6.00;2.00;;;;;;;2.21;100.00;101401.72;4957439;28;20198;-46
2024/01/13 08:01:32;;;;;;;9.90;2.67;;;;;;;2.23;100.00;101389.38;4934744;28;20184;-47
2024/01/13 08:03:58;;;;;;;6.70;2.15;;;;;;;2.26;100.00;101382.34;4949509;28;20182;-47
2024/01/13 08:06:24;;;;;;;10.02;2.60;;;;;;;2.37;100.00;101384.16;4961797;28;20225;-46
2024/01/13 08:08:50;;;;;;;11.60;2.40;;;;;;;2.29;100.00;101380.59;4962576;28;20178;-46
2024/01/13 08:11:16;;;;;;;10.60;2.70;;;;;;;2.32;100.00;101370.94;4943485;28;20209;-45
2024/01/13 08:13:41;;;;;;;8.65;2.58;;;;;;;2.38;100.00;101378.88;4959996;28;20520;-44
2024/01/13 08:16:09;;;;;;;6.82;2.28;;;;;;;2.31;100.00;101377.09;4965989;28;20175;-46
2024/01/13 08:18:36;;;;;;;7.03;2.45;;;;;;;2.32;100.00;101380.59;4948432;28;20306;-45
2024/01/13 08:21:02;;;;;;;7.50;2.25;;;;;;;2.36;100.00;101375.38;4965692;28;20205;-45
2024/01/13 08:23:28;;;;;;;8.43;2.45;;;;;;;2.41;100.00;101372.72;4961187;28;20515;-46
2024/01/13 08:25:53;;;;;;;5.32;2.40;;;;;;;2.53;100.00;101379.81;4946204;28;20247;-46
2024/01/13 08:28:19;;;;;;;5.82;2.10;;;;;;;2.44;100.00;101370.09;4961124;28;20177;-46
2024/01/13 08:30:45;;;;;;;6.70;2.55;;;;;;;2.43;100.00;101366.56;4961553;28;20197;-43
2024/01/13 08:33:11;;;;;;;10.13;2.30;;;;;;;2.47;100.00;101367.44;4962916;28;20198;-45
2024/01/13 08:35:36;;;;;;;10.73;2.42;;;;;;;2.41;100.00;101352.44;4960948;28;20249;-45
2024/01/13 08:38:02;;;;;;;8.95;2.75;;;;;;;2.39;100.00;101348.91;4961608;28;20210;-46
2024/01/13 08:40:28;;;;;;;12.02;4.78;;;;;;;2.39;100.00;101343.63;4962781;28;20175;-47
2024/01/13 08:42:53;;;;;;;9.15;2.65;;;;;;;2.46;100.00;101336.59;4961621;28;20178;-46
2024/01/13 08:45:23;;;;;;;9.20;2.70;;;;;;;2.47;100.00;101344.53;4967334;28;20265;-46
2024/01/13 08:47:49;;;;;;;6.90;2.53;;;;;;;2.50;100.00;101340.16;4966858;28;20264;-45
2024/01/13 08:50:15;;;;;;;12.75;2.83;;;;;;;2.50;100.00;101342.78;4947584;28;20279;-46
2024/01/13 08:52:40;;;;;;;5.78;2.30;;;;;;;2.53;100.00;101341.03;4966961;28;20190;-46
2024/01/13 08:55:06;;;;;;;4.53;2.35;;;;;;;2.54;100.00;101341.94;4952568;28;20296;-46
2024/01/13 08:57:32;;;;;;;10.50;3.10;;;;;;;2.52;100.00;101343.69;4966523;28;20730;-45
2024/01/13 08:59:57;;;;;;;12.48;3.35;;;;;;;2.53;100.00;101341.03;4963923;28;20194;-46
2024/01/13 09:02:23;;;;;;;11.45;3.75;;;;;;;2.52;100.00;101327.81;4965284;28;20588;-47
2024/01/13 09:04:48;;;;;;;13.35;3.58;;;;;;;2.61;100.00;101334.00;4972241;28;20208;-46
2024/01/13 09:07:14;;;;;;;8.40;3.40;;;;;;;2.57;100.00;101332.22;4952409;28;20204;-44
2024/01/13 09:09:39;;;;;;;8.02;3.33;;;;;;;2.58;100.00;101322.50;4961335;28;20205;-45
2024/01/13 09:12:05;;;;;;;9.88;3.45;;;;;;;2.55;100.00;101317.22;4974905;28;20675;-45
2024/01/13 09:14:30;;;;;;;14.30;3.38;;;;;;;2.66;100.00;101318.13;4970876;28;20779;-45
2024/01/13 09:16:56;;;;;;;12.32;3.15;;;;;;;2.59;100.00;101295.19;4968842;28;20677;-45
2024/01/13 09:19:21;;;;;;;16.92;2.83;;;;;;;2.53;100.00;101296.06;4965186;28;20170;-47
2024/01/13 09:21:47;;;;;;;11.40;3.30;;;;;;;2.55;100.00;101289.00;4966497;28;20190;-44
2024/01/13 09:24:14;;;;;;;16.05;3.10;;;;;;;2.59;100.00;101296.06;4951389;28;20277;-45
2024/01/13 09:26:44;;;;;;;9.80;2.85;;;;;;;2.64;100.00;101288.16;4960399;28;20687;-46
2024/01/13 09:29:09;;;;;;;10.65;2.92;;;;;;;2.62;100.00;101292.56;4968310;28;20190;-46
2024/01/13 09:31:35;;;;;;;12.05;3.53;;;;;;;2.68;100.00;101271.41;4966089;28;20201;-44
2024/01/13 09:34:01;;;;;;;11.82;3.47;;;;;;;2.66;100.00;101281.09;4967703;28;20300;-45
2024/01/13 09:36:27;;;;;;;14.48;3.90;;;;;;;2.69;100.00;101281.13;4963151;28;20273;-44
2024/01/13 09:38:52;;;;;;;7.93;3.58;;;;;;;2.76;100.00;101274.06;4964522;28;20281;-45
2024/01/13 09:41:18;;;;;;;15.68;3.72;;;;;;;2.78;100.00;101265.25;4965114;28;20182;-45
2024/01/13 09:43:56;;;;;;;11.38;4.05;;;;;;;2.78;100.00;101267.03;4969424;28;20317;-46
2024/01/13 09:46:23;;;;;;;13.02;3.38;;;;;;;2.77;100.00;101252.88;4967656;28;20192;-44
2024/01/13 09:48:48;;;;;;;13.10;3.58;;;;;;;2.78;100.00;101265.25;4967665;28;20189;-47
2024/01/13 09:51:15;;;;;;;11.15;3.75;;;;;;;2.87;100.00;101273.19;4951027;28;20547;-46
2024/01/13 09:53:47;;;;;;;11.95;3.50;;;;;;;2.93;100.00;101255.53;4945814;28;20626;-45
2024/01/13 09:56:20;;;;;;;7.07;3.17;;;;;;;2.89;100.00;101260.84;4964991;28;20211;-48
2024/01/13 09:58:47;;;;;;;9.55;3.67;;;;;;;2.84;100.00;101262.59;4960304;28;20190;-46
2024/01/13 10:01:12;;;;;;;8.27;3.83;;;;;;;2.84;100.00;101252.03;4954804;28;20598;-46
2024/01/13 10:03:38;;;;;;;6.05;3.10;;;;;;;3.00;100.00;101238.78;4964695;28;20253;-47
2024/01/13 10:06:04;;;;;;;8.35;2.90;;;;;;;2.91;100.00;101249.34;4964956;28;20660;-46
2024/01/13 10:08:32;;;;;;;9.50;3.38;;;;;;;2.86;100.00;101226.44;4970281;28;20183;-47
2024/01/13 10:10:59;;;;;;;13.95;3.35;;;;;;;2.89;100.00;101229.09;4964749;28;20209;-47
2024/01/13 10:13:25;;;;;;;13.10;3.25;;;;;;;2.94;100.00;101217.63;4964738;28;20209;-47
2024/01/13 10:15:54;;;;;;;11.70;3.78;;;;;;;2.95;100.00;101227.31;4951736;28;20205;-47
2024/01/13 10:18:21;;;;;;;5.22;2.83;;;;;;;2.96;100.00;101213.19;4945802;28;20207;-46
2024/01/13 10:20:46;;;;;;;10.25;3.13;;;;;;;2.97;100.00;101201.72;4957605;28;20241;-47
2024/01/13 10:23:13;;;;;;;7.53;2.53;;;;;;;2.95;100.00;101190.25;4941830;28;20181;-45
2024/01/13 10:25:39;;;;;;;11.38;2.92;;;;;;;2.96;100.00;101179.66;4973284;28;20215;-44
2024/01/13 10:28:04;;;;;;;7.95;2.80;;;;;;;2.97;100.00;101160.25;4974704;28;20235;-46
2024/01/13 10:30:31;;;;;;;10.75;2.47;;;;;;;3.01;100.00;101161.13;4946222;28;20241;-43
2024/01/13 10:33:00;;;;;;;8.40;2.88;;;;;;;3.00;100.00;101162.91;4955959;28;20510;-46
2024/01/13 10:35:29;;;;;;;8.38;2.45;;;;;;;3.01;100.00;101147.91;4954318;28;20759;-42
2024/01/13 10:37:59;;;;;;;3.45;2.42;;;;;;;3.23;100.00;101128.41;4976244;28;20178;-43
2024/01/13 10:40:27;;;;;;;7.35;2.53;;;;;;;3.16;100.00;101126.69;4970955;28;20181;-43
2024/01/13 10:42:57;;;;;;;7.32;2.65;;;;;;;3.12;100.00;101124.91;4968402;28;20322;-43
2024/01/13 10:45:24;;;;;;;8.70;2.50;;;;;;;3.24;100.00;101124.03;4969962;28;20202;-44
2024/01/13 10:47:52;;;;;;;5.05;1.90;;;;;;;3.18;100.00;101121.38;4967888;28;20534;-43
2024/01/13 10:50:19;;;;;;;8.25;2.22;;;;;;;3.20;100.00;101122.28;4956412;28;20191;-43
2024/01/13 10:52:58;;;;;;;8.38;2.50;;;;;;;3.22;100.00;101118.72;4973209;28;20205;-48
2024/01/13 10:55:24;;;;;;;4.45;1.90;;;;;;;3.22;100.00;101121.38;4956958;28;20204;-44
2024/01/13 10:57:52;;;;;;;10.68;2.38;;;;;;;3.25;100.00;101112.53;4968844;28;20541;-45
2024/01/13 11:00:19;;;;;;;4.90;2.10;;;;;;;3.33;100.00;101105.44;4969197;28;20193;-44
2024/01/13 11:02:46;;;;;;;5.32;1.73;;;;;;;3.32;100.00;101103.66;4971857;28;20411;-44
2024/01/13 11:05:14;;;;;;;8.15;1.70;;;;;;;3.29;100.00;101109.84;4962372;28;20708;-43
2024/01/13 11:07:40;;;;;;;6.20;1.40;;;;;;;3.37;100.00;101107.19;4972384;28;20186;-43
2024/01/13 11:10:13;;;;;;;3.10;1.27;;;;;;;3.40;100.00;101106.31;4971287;28;20210;-45
2024/01/13 11:12:48;;;;;;;3.03;1.13;;;;;;;3.36;100.00;101102.78;4973479;28;20244;-43
2024/01/13 11:15:43;;;;;;;3.38;1.40;;;;;;;3.40;100.00;101108.94;4969156;28;20198;-44
2024/01/13 11:18:13;;;;;;;1.58;0.98;;;;;;;3.48;100.00;101107.16;4969108;28;20286;-44